Time;durP1;ratioP1;P1;durP2;ratioP2;P2;SDS_P1;SDS_P2;PMS_P1;PMS_P2;Temp;Humidity;BMP_temperature;BMP_pressure;BME280_temperature;BME280_humidity;BME280_pressure;Samples;Min_cycle;Max_cycle;Signal;HPM_P1;HPM_P2
2021/08/15 00:01:44;;;;;;;;;35.00;27.75;;;;;;;;5060957;28;46825;-81
2021/08/15 00:04:09;;;;;;;;;39.25;30.25;;;;;;;;5078756;28;47150;-81
2021/08/15 00:06:35;;;;;;;;;25.25;25.25;;;;;;;;5079013;28;46877;-81
2021/08/15 00:09:01;;;;;;;;;30.75;26.75;;;;;;;;5079210;28;46895;-81
2021/08/15 00:11:26;;;;;;;;;32.75;28.50;;;;;;;;5079197;28;47284;-81
2021/08/15 00:13:51;;;;;;;;;32.50;26.75;;;;;;;;5078649;28;47113;-81
2021/08/15 00:16:16;;;;;;;;;31.75;24.50;;;;;;;;5078902;28;46983;-81
2021/08/15 00:18:42;;;;;;;;;29.00;24.00;;;;;;;;5078531;28;46892;-81
2021/08/15 00:21:07;;;;;;;;;28.50;24.25;;;;;;;;5078847;28;46815;-81
2021/08/15 00:23:32;;;;;;;;;32.75;28.00;;;;;;;;5078859;28;47092;-81
2021/08/15 00:25:58;;;;;;;;;26.75;23.50;;;;;;;;5072286;28;46985;-81
2021/08/15 00:28:23;;;;;;;;;30.75;27.00;;;;;;;;5071697;28;46963;-81
2021/08/15 00:30:49;;;;;;;;;31.25;26.00;;;;;;;;5077748;28;47270;-81
2021/08/15 00:33:14;;;;;;;;;33.25;24.75;;;;;;;;5078268;28;47117;-81
2021/08/15 00:35:39;;;;;;;;;27.75;22.75;;;;;;;;5078505;28;46974;-81
2021/08/15 00:38:05;;;;;;;;;30.00;25.25;;;;;;;;5060327;28;47032;-81
2021/08/15 00:40:30;;;;;;;;;29.00;23.00;;;;;;;;5078715;28;47034;-81
2021/08/15 00:42:55;;;;;;;;;26.75;22.25;;;;;;;;5078554;28;46974;-81
2021/08/15 00:45:21;;;;;;;;;30.00;23.25;;;;;;;;5078499;28;46934;-81
2021/08/15 00:47:46;;;;;;;;;27.50;23.50;;;;;;;;5078578;28;46963;-81
2021/08/15 00:50:11;;;;;;;;;24.00;21.25;;;;;;;;5078259;28;46965;-81
2021/08/15 00:52:37;;;;;;;;;23.75;22.25;;;;;;;;5078434;28;47963;-81
2021/08/15 00:55:03;;;;;;;;;26.00;23.25;;;;;;;;5078178;28;46972;-82
2021/08/15 00:57:31;;;;;;;;;24.75;23.25;;;;;;;;5078215;28;46821;-82
2021/08/15 00:59:58;;;;;;;;;27.50;23.50;;;;;;;;5078480;28;47219;-82
2021/08/15 01:02:24;;;;;;;;;28.50;23.25;;;;;;;;5078273;28;47812;-82
2021/08/15 01:04:49;;;;;;;;;29.25;25.25;;;;;;;;5077876;28;47054;-82
2021/08/15 01:07:14;;;;;;;;;29.50;25.25;;;;;;;;5078363;28;46979;-82
2021/08/15 01:09:41;;;;;;;;;31.50;24.25;;;;;;;;5078219;28;47177;-82
2021/08/15 01:12:06;;;;;;;;;30.00;23.75;;;;;;;;5078178;28;47201;-82
2021/08/15 01:14:32;;;;;;;;;13.00;10.00;;;;;;;;5077676;28;46943;-82
2021/08/15 01:16:57;;;;;;;;;21.50;15.75;;;;;;;;5078211;28;47037;-82
2021/08/15 01:19:27;;;;;;;;;21.50;17.00;;;;;;;;5077959;28;46965;-81
2021/08/15 01:21:52;;;;;;;;;21.25;19.50;;;;;;;;5078041;28;47217;-81
2021/08/15 01:24:17;;;;;;;;;22.25;19.00;;;;;;;;5077896;28;46967;-81
2021/08/15 01:26:44;;;;;;;;;22.25;18.50;;;;;;;;5065326;28;46974;-81
2021/08/15 01:29:09;;;;;;;;;18.25;15.75;;;;;;;;5077667;28;47149;-81
2021/08/15 01:31:34;;;;;;;;;19.50;15.75;;;;;;;;5077928;28;46899;-81
2021/08/15 01:34:00;;;;;;;;;23.50;18.75;;;;;;;;5077441;28;47001;-81
2021/08/15 01:36:25;;;;;;;;;17.50;15.50;;;;;;;;5078102;28;47021;-81
2021/08/15 01:38:51;;;;;;;;;19.75;17.25;;;;;;;;5059553;28;47795;-82
2021/08/15 01:41:16;;;;;;;;;21.00;18.00;;;;;;;;5078571;28;46974;-82
2021/08/15 01:43:45;;;;;;;;;23.50;19.00;;;;;;;;5081175;28;46958;-81
2021/08/15 01:46:11;;;;;;;;;21.50;17.25;;;;;;;;5063056;28;46841;-81
2021/08/15 01:48:37;;;;;;;;;21.25;14.75;;;;;;;;5081170;28;46828;-81
2021/08/15 01:51:02;;;;;;;;;21.50;16.25;;;;;;;;5081219;28;46943;-81
2021/08/15 01:53:27;;;;;;;;;22.25;19.25;;;;;;;;5081073;28;46938;-81
2021/08/15 01:55:53;;;;;;;;;23.50;18.00;;;;;;;;5081276;28;46953;-81
2021/08/15 01:58:19;;;;;;;;;20.75;17.25;;;;;;;;5080966;28;47265;-81
2021/08/15 02:00:45;;;;;;;;;17.50;16.25;;;;;;;;5080911;28;47118;-81
2021/08/15 02:03:10;;;;;;;;;24.00;18.75;;;;;;;;5080501;28;47113;-81
2021/08/15 02:05:36;;;;;;;;;20.50;17.00;;;;;;;;5081056;28;47030;-81
2021/08/15 02:08:02;;;;;;;;;16.75;15.25;;;;;;;;5080967;28;46848;-81
2021/08/15 02:10:29;;;;;;;;;20.00;17.00;;;;;;;;5080739;28;47163;-81
2021/08/15 02:12:58;;;;;;;;;18.00;17.00;;;;;;;;5080240;28;46974;-96
2021/08/15 02:15:23;;;;;;;;;25.25;19.00;;;;;;;;5062612;28;47073;-81
2021/08/15 02:17:49;;;;;;;;;18.00;16.50;;;;;;;;5080657;28;47150;-81
2021/08/15 02:20:15;;;;;;;;;16.75;14.75;;;;;;;;5080448;28;46867;-81
2021/08/15 02:22:40;;;;;;;;;24.50;19.00;;;;;;;;5080521;28;47232;-81
2021/08/15 02:25:07;;;;;;;;;16.25;16.25;;;;;;;;5080928;28;46950;-81
2021/08/15 02:27:33;;;;;;;;;14.25;13.50;;;;;;;;5080060;28;47259;-81
2021/08/15 02:29:58;;;;;;;;;16.00;14.50;;;;;;;;5080658;28;46997;-81
2021/08/15 02:32:23;;;;;;;;;17.00;15.00;;;;;;;;5062260;28;48027;-81
2021/08/15 02:34:49;;;;;;;;;20.75;14.00;;;;;;;;5080026;28;47173;-81
2021/08/15 02:37:14;;;;;;;;;5.00;3.33;;;;;;;;5080763;28;47023;-81
2021/08/15 02:39:39;;;;;;;;;20.00;17.00;;;;;;;;5080311;28;47909;-81
2021/08/15 02:42:05;;;;;;;;;17.00;15.75;;;;;;;;5080174;28;46808;-81
2021/08/15 02:44:30;;;;;;;;;21.75;17.00;;;;;;;;5080269;28;46880;-81
2021/08/15 02:46:55;;;;;;;;;17.00;15.00;;;;;;;;5080368;28;46714;-81
2021/08/15 02:49:20;;;;;;;;;20.75;17.50;;;;;;;;5079937;28;46971;-81
2021/08/15 02:51:46;;;;;;;;;23.00;19.75;;;;;;;;5080078;28;46807;-80
2021/08/15 02:54:11;;;;;;;;;17.25;16.00;;;;;;;;5079399;28;46928;-81
2021/08/15 02:56:36;;;;;;;;;22.00;20.00;;;;;;;;5080026;28;47302;-81
2021/08/15 02:59:02;;;;;;;;;20.25;20.00;;;;;;;;5079959;28;47279;-81
2021/08/15 03:01:27;;;;;;;;;20.50;18.00;;;;;;;;5061461;28;47772;-81
2021/08/15 03:03:52;;;;;;;;;21.25;18.75;;;;;;;;5079873;28;47077;-81
2021/08/15 03:06:18;;;;;;;;;20.25;18.00;;;;;;;;5061682;28;47150;-81
2021/08/15 03:08:43;;;;;;;;;20.25;18.75;;;;;;;;5079990;28;46958;-82
2021/08/15 03:11:08;;;;;;;;;19.50;18.75;;;;;;;;5079697;28;47023;-81
2021/08/15 03:13:33;;;;;;;;;21.75;20.00;;;;;;;;5079819;28;47016;-81
2021/08/15 03:15:59;;;;;;;;;28.25;21.25;;;;;;;;5079725;28;46994;-81
2021/08/15 03:18:24;;;;;;;;;19.75;18.25;;;;;;;;5079385;28;48028;-81
2021/08/15 03:20:50;;;;;;;;;21.25;19.00;;;;;;;;5079739;28;47011;-81
2021/08/15 03:23:15;;;;;;;;;21.75;17.25;;;;;;;;5061418;28;47147;-81
2021/08/15 03:25:40;;;;;;;;;23.25;16.50;;;;;;;;5079385;28;46981;-81
2021/08/15 03:28:06;;;;;;;;;19.25;18.50;;;;;;;;5079358;28;47021;-81
2021/08/15 03:30:32;;;;;;;;;6.75;6.25;;;;;;;;5079735;28;46936;-81
2021/08/15 03:32:57;;;;;;;;;20.25;16.50;;;;;;;;5079474;28;47010;-81
2021/08/15 03:35:22;;;;;;;;;20.50;18.25;;;;;;;;5079549;28;47027;-81
2021/08/15 03:37:48;;;;;;;;;20.00;17.50;;;;;;;;5079330;28;47615;-81
2021/08/15 03:40:13;;;;;;;;;22.00;18.50;;;;;;;;5079317;28;46801;-81
2021/08/15 03:42:38;;;;;;;;;26.50;22.00;;;;;;;;5079313;28;46894;-81
2021/08/15 03:45:07;;;;;;;;;23.50;18.75;;;;;;;;5079545;28;46731;-81
2021/08/15 03:47:33;;;;;;;;;21.00;18.50;;;;;;;;5079293;28;46881;-81
2021/08/15 03:49:59;;;;;;;;;19.00;17.75;;;;;;;;5078953;28;47128;-80
2021/08/15 03:52:24;;;;;;;;;23.75;19.75;;;;;;;;5079280;28;47010;-80
2021/08/15 03:54:49;;;;;;;;;19.75;15.25;;;;;;;;5079481;28;46943;-80
2021/08/15 03:57:15;;;;;;;;;19.25;15.00;;;;;;;;5078910;28;47131;-80
2021/08/15 03:59:40;;;;;;;;;19.50;17.25;;;;;;;;5060820;28;47078;-80
2021/08/15 04:02:05;;;;;;;;;19.50;16.50;;;;;;;;5060929;28;47069;-80
2021/08/15 04:04:31;;;;;;;;;21.00;18.75;;;;;;;;5078637;28;47299;-80
2021/08/15 04:06:56;;;;;;;;;22.75;17.75;;;;;;;;5078972;28;48361;-80
2021/08/15 04:09:21;;;;;;;;;23.25;20.75;;;;;;;;5060694;28;46880;-81
2021/08/15 04:11:47;;;;;;;;;19.50;17.00;;;;;;;;5079070;28;47013;-81
2021/08/15 04:14:12;;;;;;;;;22.50;19.25;;;;;;;;5078751;28;47126;-81
2021/08/15 04:16:37;;;;;;;;;18.75;16.75;;;;;;;;5078794;28;46970;-81
2021/08/15 04:19:03;;;;;;;;;21.50;18.00;;;;;;;;5078496;28;47033;-81
2021/08/15 04:21:28;;;;;;;;;19.00;17.50;;;;;;;;5078908;28;47144;-81
2021/08/15 04:23:53;;;;;;;;;19.00;18.00;;;;;;;;5078984;28;47238;-81
2021/08/15 04:26:19;;;;;;;;;20.00;17.00;;;;;;;;5050956;28;49641;-81
2021/08/15 04:28:44;;;;;;;;;19.75;17.75;;;;;;;;5074415;28;47047;-81
2021/08/15 04:31:09;;;;;;;;;18.25;16.25;;;;;;;;5078670;28;46895;-81
2021/08/15 04:33:35;;;;;;;;;18.75;15.50;;;;;;;;5078609;28;46867;-81
2021/08/15 04:36:00;;;;;;;;;19.25;17.50;;;;;;;;5078713;28;47974;-81
2021/08/15 04:38:25;;;;;;;;;19.50;17.25;;;;;;;;5078425;28;46828;-80
2021/08/15 04:40:51;;;;;;;;;19.25;15.50;;;;;;;;5060417;28;47051;-80
2021/08/15 04:43:17;;;;;;;;;18.25;15.50;;;;;;;;5078864;28;46774;-81
2021/08/15 04:45:42;;;;;;;;;19.00;16.00;;;;;;;;5078492;28;47756;-81
2021/08/15 04:48:07;;;;;;;;;18.00;17.00;;;;;;;;5059840;28;46888;-81
2021/08/15 04:50:33;;;;;;;;;16.50;15.00;;;;;;;;5078513;28;47106;-81
2021/08/15 04:52:58;;;;;;;;;17.00;16.00;;;;;;;;5078501;28;47266;-81
2021/08/15 04:55:23;;;;;;;;;10.50;9.75;;;;;;;;5078492;28;47007;-81
2021/08/15 04:57:49;;;;;;;;;17.50;16.00;;;;;;;;5077949;28;47157;-81
2021/08/15 05:00:14;;;;;;;;;18.00;16.75;;;;;;;;5078429;28;46916;-81
2021/08/15 05:02:39;;;;;;;;;19.75;15.75;;;;;;;;5078262;28;46943;-81
2021/08/15 05:05:05;;;;;;;;;16.25;14.25;;;;;;;;5077836;28;47029;-81
2021/08/15 05:07:30;;;;;;;;;16.75;14.00;;;;;;;;5078257;28;47161;-81
2021/08/15 05:09:56;;;;;;;;;15.25;15.00;;;;;;;;5078433;28;47142;-81
2021/08/15 05:12:21;;;;;;;;;15.25;13.00;;;;;;;;5078134;28;46825;-80
2021/08/15 05:14:46;;;;;;;;;18.75;16.50;;;;;;;;5078013;28;47840;-81
2021/08/15 05:17:11;;;;;;;;;16.50;16.00;;;;;;;;5080284;28;47002;-81
2021/08/15 05:19:37;;;;;;;;;18.75;17.00;;;;;;;;5081336;28;47029;-81
2021/08/15 05:22:02;;;;;;;;;15.75;15.25;;;;;;;;5081864;28;46986;-80
2021/08/15 05:24:28;;;;;;;;;15.00;14.75;;;;;;;;5081535;28;46880;-80
2021/08/15 05:26:53;;;;;;;;;7.50;5.75;;;;;;;;5068410;28;46876;-80
2021/08/15 05:29:18;;;;;;;;;20.00;18.00;;;;;;;;5081534;28;47106;-80
2021/08/15 05:31:44;;;;;;;;;16.50;14.00;;;;;;;;5081835;28;47015;-81
2021/08/15 05:34:09;;;;;;;;;16.00;13.75;;;;;;;;5081025;28;46905;-80
2021/08/15 05:36:34;;;;;;;;;11.75;11.50;;;;;;;;5081336;28;46887;-80
2021/08/15 05:39:00;;;;;;;;;15.25;13.00;;;;;;;;5081540;28;46761;-80
2021/08/15 05:41:25;;;;;;;;;17.00;14.25;;;;;;;;5081406;28;46710;-80
2021/08/15 05:43:50;;;;;;;;;16.50;14.25;;;;;;;;5062878;28;48362;-80
2021/08/15 05:46:16;;;;;;;;;15.25;13.00;;;;;;;;5081162;28;46877;-80
2021/08/15 05:48:41;;;;;;;;;14.50;13.75;;;;;;;;5081370;28;46723;-80
2021/08/15 05:51:07;;;;;;;;;13.00;11.75;;;;;;;;5081325;28;46977;-81
2021/08/15 05:53:32;;;;;;;;;18.50;14.00;;;;;;;;5062704;28;48246;-80
2021/08/15 05:55:58;;;;;;;;;13.50;12.50;;;;;;;;5081046;28;46901;-80
2021/08/15 05:58:23;;;;;;;;;17.75;13.50;;;;;;;;5062589;28;47125;-80
2021/08/15 06:00:49;;;;;;;;;14.50;13.00;;;;;;;;5081357;28;47197;-80
2021/08/15 06:03:14;;;;;;;;;13.00;12.00;;;;;;;;5080710;28;47795;-80
2021/08/15 06:05:39;;;;;;;;;11.75;9.00;;;;;;;;5080953;28;47095;-80
2021/08/15 06:08:05;;;;;;;;;15.50;13.50;;;;;;;;5080904;28;47283;-80
2021/08/15 06:10:30;;;;;;;;;12.75;11.50;;;;;;;;5081201;28;46973;-80
2021/08/15 06:12:55;;;;;;;;;13.50;10.00;;;;;;;;5080385;28;47011;-80
2021/08/15 06:15:21;;;;;;;;;16.50;14.25;;;;;;;;5080999;28;47021;-80
2021/08/15 06:17:46;;;;;;;;;8.25;8.25;;;;;;;;5080684;28;47006;-80
2021/08/15 06:20:12;;;;;;;;;16.75;13.50;;;;;;;;5080717;28;46887;-80
2021/08/15 06:22:42;;;;;;;;;13.25;11.50;;;;;;;;5062383;28;48845;-80
2021/08/15 06:25:08;;;;;;;;;14.50;11.75;;;;;;;;5080739;28;47153;-80
2021/08/15 06:27:33;;;;;;;;;15.00;13.00;;;;;;;;5065839;28;46861;-80
2021/08/15 06:29:59;;;;;;;;;12.25;11.25;;;;;;;;5062208;28;46953;-80
2021/08/15 06:32:24;;;;;;;;;13.50;11.50;;;;;;;;5080359;28;47745;-80
2021/08/15 06:34:49;;;;;;;;;14.00;10.75;;;;;;;;5080034;28;46990;-80
2021/08/15 06:37:15;;;;;;;;;10.50;10.25;;;;;;;;5080333;28;47100;-80
2021/08/15 06:39:40;;;;;;;;;14.75;11.50;;;;;;;;5062138;28;47083;-80
2021/08/15 06:42:05;;;;;;;;;12.50;10.00;;;;;;;;5080161;28;47850;-80
2021/08/15 06:44:30;;;;;;;;;11.00;10.00;;;;;;;;5080478;28;46973;-80
2021/08/15 06:46:56;;;;;;;;;11.25;9.50;;;;;;;;5080279;28;47137;-80
2021/08/15 06:49:21;;;;;;;;;10.75;10.25;;;;;;;;5080281;28;46864;-80
2021/08/15 06:51:47;;;;;;;;;10.50;10.50;;;;;;;;5080077;28;46888;-80
2021/08/15 06:54:12;;;;;;;;;10.50;10.50;;;;;;;;5080429;28;46989;-80
2021/08/15 06:56:38;;;;;;;;;9.25;7.50;;;;;;;;5080314;28;46966;-80
2021/08/15 06:59:04;;;;;;;;;11.75;8.25;;;;;;;;5080276;28;46908;-80
2021/08/15 07:01:29;;;;;;;;;10.00;10.00;;;;;;;;5079874;28;46955;-81
2021/08/15 07:03:55;;;;;;;;;10.50;8.00;;;;;;;;5061502;28;48066;-81
2021/08/15 07:06:20;;;;;;;;;10.50;10.25;;;;;;;;5080021;28;48416;-81
2021/08/15 07:08:45;;;;;;;;;7.50;7.50;;;;;;;;5080264;28;46804;-81
2021/08/15 07:11:11;;;;;;;;;6.50;6.00;;;;;;;;5079878;28;46770;-80
2021/08/15 07:13:36;;;;;;;;;8.75;8.75;;;;;;;;5079763;28;46842;-80
2021/08/15 07:16:03;;;;;;;;;9.00;8.00;;;;;;;;5079844;28;47096;-80
2021/08/15 07:18:29;;;;;;;;;7.75;6.00;;;;;;;;5079729;28;47090;-80
2021/08/15 07:20:58;;;;;;;;;8.00;8.00;;;;;;;;5079569;28;48101;-80
2021/08/15 07:23:23;;;;;;;;;9.00;8.75;;;;;;;;5079868;28;46885;-80
2021/08/15 07:25:48;;;;;;;;;9.25;6.75;;;;;;;;5074575;28;46884;-80
2021/08/15 07:28:14;;;;;;;;;11.50;7.25;;;;;;;;5071604;28;46757;-80
2021/08/15 07:30:39;;;;;;;;;10.50;8.00;;;;;;;;5079438;28;48297;-80
2021/08/15 07:33:06;;;;;;;;;7.75;7.25;;;;;;;;5079413;28;46824;-80
2021/08/15 07:35:32;;;;;;;;;9.25;8.00;;;;;;;;5079575;28;46855;-80
2021/08/15 07:37:58;;;;;;;;;8.00;6.00;;;;;;;;5079732;28;47121;-80
2021/08/15 07:40:24;;;;;;;;;9.00;6.00;;;;;;;;5078774;28;47474;-80
2021/08/15 07:42:53;;;;;;;;;7.25;6.50;;;;;;;;5079296;28;46983;-80
2021/08/15 07:45:19;;;;;;;;;5.00;1.50;;;;;;;;5079304;28;46809;-80
2021/08/15 07:47:44;;;;;;;;;8.00;8.00;;;;;;;;5079494;28;46827;-80
2021/08/15 07:50:10;;;;;;;;;6.75;6.75;;;;;;;;5078960;28;46938;-80
2021/08/15 07:52:36;;;;;;;;;7.50;7.00;;;;;;;;5079251;28;46919;-80
2021/08/15 07:55:01;;;;;;;;;5.75;5.50;;;;;;;;5079148;28;47126;-80
2021/08/15 07:57:26;;;;;;;;;7.25;6.75;;;;;;;;5079341;28;46796;-80
2021/08/15 07:59:53;;;;;;;;;8.25;8.00;;;;;;;;5079010;28;47081;-80
2021/08/15 08:02:18;;;;;;;;;7.00;7.00;;;;;;;;5079177;28;47119;-80
2021/08/15 08:04:43;;;;;;;;;8.75;7.50;;;;;;;;5060542;28;46994;-80
2021/08/15 08:07:09;;;;;;;;;8.50;6.75;;;;;;;;5079198;28;47034;-81
2021/08/15 08:09:35;;;;;;;;;9.00;7.25;;;;;;;;5078868;28;47310;-81
2021/08/15 08:12:01;;;;;;;;;7.00;6.00;;;;;;;;5078802;28;47222;-81
2021/08/15 08:14:26;;;;;;;;;12.25;7.75;;;;;;;;5078655;28;47087;-81
2021/08/15 08:16:52;;;;;;;;;7.25;7.00;;;;;;;;5079128;28;46910;-81
2021/08/15 08:19:19;;;;;;;;;9.00;7.25;;;;;;;;5078227;28;48129;-81
2021/08/15 08:21:44;;;;;;;;;10.75;6.00;;;;;;;;5078812;28;46793;-81
2021/08/15 08:24:10;;;;;;;;;8.50;7.50;;;;;;;;5078775;28;46847;-80
2021/08/15 08:26:35;;;;;;;;;8.50;7.50;;;;;;;;5067352;28;47060;-80
2021/08/15 08:29:00;;;;;;;;;10.00;9.00;;;;;;;;5076854;28;47707;-80
2021/08/15 08:31:27;;;;;;;;;7.75;6.75;;;;;;;;5078638;28;46803;-81
2021/08/15 08:33:52;;;;;;;;;8.00;7.75;;;;;;;;5078220;28;46820;-81
2021/08/15 08:36:18;;;;;;;;;9.50;7.50;;;;;;;;5078858;28;46737;-81
2021/08/15 08:38:43;;;;;;;;;6.00;6.00;;;;;;;;5078260;28;47093;-80
2021/08/15 08:41:10;;;;;;;;;9.75;9.00;;;;;;;;5060335;28;47080;-80
2021/08/15 08:43:36;;;;;;;;;10.75;9.00;;;;;;;;5078318;28;47177;-80
2021/08/15 08:46:02;;;;;;;;;9.75;8.75;;;;;;;;5078891;28;46938;-80
2021/08/15 08:48:27;;;;;;;;;8.25;7.25;;;;;;;;5077877;28;47708;-80
2021/08/15 08:50:52;;;;;;;;;7.75;6.50;;;;;;;;5059151;28;46967;-81
2021/08/15 08:53:18;;;;;;;;;9.00;6.00;;;;;;;;5078514;28;47018;-81
2021/08/15 08:55:44;;;;;;;;;9.00;9.00;;;;;;;;5078570;28;47160;-81
2021/08/15 08:58:10;;;;;;;;;9.75;8.50;;;;;;;;5077922;28;46917;-81
2021/08/15 09:00:35;;;;;;;;;9.50;8.75;;;;;;;;5078245;28;46818;-81
2021/08/15 09:03:01;;;;;;;;;14.75;10.75;;;;;;;;5077922;28;46942;-81
2021/08/15 09:05:32;;;;;;;;;10.00;9.00;;;;;;;;5078436;28;46761;-81
2021/08/15 09:07:58;;;;;;;;;11.25;9.25;;;;;;;;5077862;28;46965;-80
2021/08/15 09:10:34;;;;;;;;;9.00;7.00;;;;;;;;5078360;28;46819;-80
2021/08/15 09:13:01;;;;;;;;;8.25;6.75;;;;;;;;5077751;28;47070;-80
2021/08/15 09:15:26;;;;;;;;;9.50;8.00;;;;;;;;5078175;28;46822;-80
2021/08/15 09:17:52;;;;;;;;;9.25;9.25;;;;;;;;5059408;28;48180;-81
2021/08/15 09:20:22;;;;;;;;;11.00;9.50;;;;;;;;5077842;28;47180;-80
2021/08/15 09:22:48;;;;;;;;;10.00;9.00;;;;;;;;5066009;28;46951;-80
2021/08/15 09:25:19;;;;;;;;;12.25;11.00;;;;;;;;5078055;28;46858;-80
2021/08/15 09:27:47;;;;;;;;;10.50;9.25;;;;;;;;5073081;28;48617;-80
2021/08/15 09:30:13;;;;;;;;;10.50;10.25;;;;;;;;5073140;28;47169;-81
2021/08/15 09:32:46;;;;;;;;;6.50;5.00;;;;;;;;5078025;28;46801;-81
2021/08/15 09:35:16;;;;;;;;;8.50;8.50;;;;;;;;5055634;28;47215;-81
2021/08/15 09:37:42;;;;;;;;;12.50;10.25;;;;;;;;5077651;28;47804;-81
2021/08/15 09:40:25;;;;;;;;;9.50;9.00;;;;;;;;5077565;28;46921;-81
2021/08/15 09:42:51;;;;;;;;;11.00;10.00;;;;;;;;5077762;28;46755;-81
2021/08/15 09:45:30;;;;;;;;;12.50;11.25;;;;;;;;5077862;28;46816;-81
2021/08/15 09:47:55;;;;;;;;;13.25;12.50;;;;;;;;5077388;28;48205;-81
2021/08/15 09:50:23;;;;;;;;;11.25;10.75;;;;;;;;5077607;28;47027;-81
2021/08/15 09:52:48;;;;;;;;;11.00;7.00;;;;;;;;5077654;28;46925;-81
2021/08/15 09:55:14;;;;;;;;;14.25;13.25;;;;;;;;5077900;28;46954;-81
2021/08/15 09:57:39;;;;;;;;;12.50;11.75;;;;;;;;5077065;28;46821;-81
2021/08/15 10:00:06;;;;;;;;;9.75;8.75;;;;;;;;5077428;28;46731;-81
2021/08/15 10:02:31;;;;;;;;;11.50;11.00;;;;;;;;5078423;28;46907;-81
2021/08/15 10:04:57;;;;;;;;;14.25;12.00;;;;;;;;5080840;28;46798;-81
2021/08/15 10:07:24;;;;;;;;;15.25;13.25;;;;;;;;5080771;28;47816;-81
2021/08/15 10:09:50;;;;;;;;;12.25;12.25;;;;;;;;5080761;28;47147;-81
2021/08/15 10:12:15;;;;;;;;;13.75;12.75;;;;;;;;5080863;28;46899;-81
2021/08/15 10:14:40;;;;;;;;;13.25;11.50;;;;;;;;5062277;28;46904;-81
2021/08/15 10:17:10;;;;;;;;;13.25;13.25;;;;;;;;5080559;28;47009;-81
2021/08/15 10:19:38;;;;;;;;;13.25;12.00;;;;;;;;5080274;28;46913;-81
2021/08/15 10:22:04;;;;;;;;;16.00;13.50;;;;;;;;5080562;28;46985;-80
2021/08/15 10:24:40;;;;;;;;;13.00;11.25;;;;;;;;5062390;28;47451;-81
2021/08/15 10:27:05;;;;;;;;;15.00;13.00;;;;;;;;5067305;28;47439;-81
2021/08/15 10:29:31;;;;;;;;;15.25;14.00;;;;;;;;5080432;28;46875;-81
2021/08/15 10:32:09;;;;;;;;;15.50;14.50;;;;;;;;5080342;28;47156;-81
2021/08/15 10:34:50;;;;;;;;;15.00;12.50;;;;;;;;5080320;28;47054;-81
2021/08/15 10:37:24;;;;;;;;;13.25;12.50;;;;;;;;5062040;28;47441;-81
2021/08/15 10:39:51;;;;;;;;;14.00;13.50;;;;;;;;5080279;28;46923;-81
2021/08/15 10:42:46;;;;;;;;;16.25;14.25;;;;;;;;5080362;28;47097;-81
2021/08/15 10:45:19;;;;;;;;;12.25;11.25;;;;;;;;5052399;28;47255;-81
2021/08/15 10:48:04;;;;;;;;;23.25;15.00;;;;;;;;5061521;28;47063;-81
2021/08/15 10:50:46;;;;;;;;;15.25;13.25;;;;;;;;5061559;28;47153;-80
2021/08/15 10:53:29;;;;;;;;;19.25;14.75;;;;;;;;5080062;28;46860;-81
2021/08/15 10:55:59;;;;;;;;;17.25;15.75;;;;;;;;5080367;28;46949;-81
2021/08/15 10:58:34;;;;;;;;;17.50;15.00;;;;;;;;5066496;28;47009;-81
2021/08/15 11:00:59;;;;;;;;;11.00;10.75;;;;;;;;5079879;28;46981;-81
2021/08/15 11:03:24;;;;;;;;;11.50;11.00;;;;;;;;5079803;28;47049;-80
2021/08/15 11:05:50;;;;;;;;;14.00;12.75;;;;;;;;5079857;28;46947;-80
2021/08/15 11:08:33;;;;;;;;;11.75;11.50;;;;;;;;5079930;28;47150;-80
2021/08/15 11:11:06;;;;;;;;;11.00;11.00;;;;;;;;5061479;28;47176;-81
2021/08/15 11:13:32;;;;;;;;;8.00;7.75;;;;;;;;5079119;28;46818;-81
2021/08/15 11:16:15;;;;;;;;;10.75;10.75;;;;;;;;5079499;28;46749;-80
2021/08/15 11:19:00;;;;;;;;;17.25;16.00;;;;;;;;5079165;28;47011;-81
2021/08/15 11:21:46;;;;;;;;;10.25;8.50;;;;;;;;5079507;27;46992;-81
2021/08/15 11:24:11;;;;;;;;;9.50;8.25;;;;;;;;5079664;28;46805;-81
2021/08/15 11:26:36;;;;;;;;;9.75;9.00;;;;;;;;5067876;28;46998;-81
2021/08/15 11:29:04;;;;;;;;;11.75;10.00;;;;;;;;5059312;28;47143;-81
2021/08/15 11:31:36;;;;;;;;;11.25;9.00;;;;;;;;5079604;28;47046;-81
2021/08/15 11:34:05;;;;;;;;;9.50;8.00;;;;;;;;5078941;28;46929;-82
2021/08/15 11:36:30;;;;;;;;;10.50;9.50;;;;;;;;5061303;28;46892;-81
2021/08/15 11:38:56;;;;;;;;;9.50;8.75;;;;;;;;5079142;28;47903;-82
2021/08/15 11:41:21;;;;;;;;;9.25;8.75;;;;;;;;5061245;28;47582;-82
2021/08/15 11:43:54;;;;;;;;;10.00;9.00;;;;;;;;5079130;28;46963;-81
2021/08/15 11:46:19;;;;;;;;;11.25;8.00;;;;;;;;5079363;28;47276;-81
2021/08/15 11:48:45;;;;;;;;;10.25;8.00;;;;;;;;5078999;28;47148;-81
2021/08/15 11:51:10;;;;;;;;;11.25;8.75;;;;;;;;5079054;28;46877;-81
2021/08/15 11:53:37;;;;;;;;;10.00;9.00;;;;;;;;5079567;28;46917;-81
2021/08/15 11:56:10;;;;;;;;;9.75;7.75;;;;;;;;5079364;28;47307;-81
2021/08/15 11:58:42;;;;;;;;;11.25;9.00;;;;;;;;5079094;28;47685;-81
2021/08/15 12:01:07;;;;;;;;;9.50;8.75;;;;;;;;5079124;28;46749;-81
2021/08/15 12:03:33;;;;;;;;;9.00;8.50;;;;;;;;5079042;28;46924;-81
2021/08/15 12:06:02;;;;;;;;;10.00;9.00;;;;;;;;5079025;28;47022;-81
2021/08/15 12:08:54;;;;;;;;;7.75;7.75;;;;;;;;5060593;28;48635;-81
2021/08/15 12:11:24;;;;;;;;;9.25;9.00;;;;;;;;5057151;28;46906;-81
2021/08/15 12:13:52;;;;;;;;;11.75;9.25;;;;;;;;5078691;28;46927;-82
2021/08/15 12:16:21;;;;;;;;;10.25;9.75;;;;;;;;5079045;28;47086;-81
2021/08/15 12:18:46;;;;;;;;;11.25;9.00;;;;;;;;5078475;28;47301;-82
2021/08/15 12:21:15;;;;;;;;;7.50;6.75;;;;;;;;5078840;28;46947;-81
2021/08/15 12:23:56;;;;;;;;;7.75;6.75;;;;;;;;5060458;28;46782;-81
2021/08/15 12:26:25;;;;;;;;;12.00;10.00;;;;;;;;5069056;28;47015;-82
2021/08/15 12:28:54;;;;;;;;;9.00;7.75;;;;;;;;5057118;28;48455;-81
2021/08/15 12:31:21;;;;;;;;;12.25;10.00;;;;;;;;5078461;28;46876;-81
2021/08/15 12:33:46;;;;;;;;;11.00;8.25;;;;;;;;5078097;28;46865;-81
2021/08/15 12:36:15;;;;;;;;;10.25;8.75;;;;;;;;5078817;28;46943;-82
2021/08/15 12:38:41;;;;;;;;;11.25;8.75;;;;;;;;5078072;28;47916;-81
2021/08/15 12:41:24;;;;;;;;;10.00;8.50;;;;;;;;5078456;28;46917;-82
2021/08/15 12:44:09;;;;;;;;;8.50;8.00;;;;;;;;5078525;28;46806;-81
2021/08/15 12:46:35;;;;;;;;;8.50;7.00;;;;;;;;5078541;28;46851;-81
2021/08/15 12:49:15;;;;;;;;;10.00;9.50;;;;;;;;5078108;28;46943;-81
2021/08/15 12:51:40;;;;;;;;;7.75;7.75;;;;;;;;5078327;28;47171;-81
2021/08/15 12:54:05;;;;;;;;;12.50;9.25;;;;;;;;5060318;28;47080;-81
2021/08/15 12:56:31;;;;;;;;;11.00;8.75;;;;;;;;5078541;28;47086;-81
2021/08/15 12:58:56;;;;;;;;;9.00;8.75;;;;;;;;5059842;28;46999;-81
2021/08/15 13:01:21;;;;;;;;;10.50;7.75;;;;;;;;5078179;28;47215;-81
2021/08/15 13:03:47;;;;;;;;;8.25;8.25;;;;;;;;5077921;28;47034;-81
2021/08/15 13:06:12;;;;;;;;;9.00;9.00;;;;;;;;5078450;28;47118;-81
2021/08/15 13:08:37;;;;;;;;;10.50;8.50;;;;;;;;5078228;28;47001;-81
2021/08/15 13:11:02;;;;;;;;;8.25;8.25;;;;;;;;5078147;28;46977;-81
2021/08/15 13:13:28;;;;;;;;;8.00;8.00;;;;;;;;5078034;28;46961;-81
2021/08/15 13:15:53;;;;;;;;;10.50;9.00;;;;;;;;5078298;28;47376;-81
2021/08/15 13:18:19;;;;;;;;;11.00;10.00;;;;;;;;5077633;28;46825;-81
2021/08/15 13:20:44;;;;;;;;;10.75;9.50;;;;;;;;5059616;28;46983;-81
2021/08/15 13:23:11;;;;;;;;;8.25;8.00;;;;;;;;5078128;28;46852;-82
2021/08/15 13:25:36;;;;;;;;;9.25;8.75;;;;;;;;5078228;28;46829;-81
2021/08/15 13:28:03;;;;;;;;;9.50;8.00;;;;;;;;5077877;28;46895;-81
2021/08/15 13:30:28;;;;;;;;;10.25;9.00;;;;;;;;5078248;28;46881;-81
2021/08/15 13:32:55;;;;;;;;;8.25;8.00;;;;;;;;5077714;28;46990;-83
2021/08/15 13:35:20;;;;;;;;;10.50;8.00;;;;;;;;5078213;28;46963;-81
2021/08/15 13:37:46;;;;;;;;;11.00;9.25;;;;;;;;5079372;28;48053;-81
2021/08/15 13:40:11;;;;;;;;;7.00;7.00;;;;;;;;5081366;28;46806;-81
2021/08/15 13:42:37;;;;;;;;;8.50;8.25;;;;;;;;5081632;28;47071;-82
2021/08/15 13:45:04;;;;;;;;;7.00;6.50;;;;;;;;5081615;28;47020;-82
2021/08/15 13:47:29;;;;;;;;;10.00;7.25;;;;;;;;5081033;27;46865;-81
2021/08/15 13:49:55;;;;;;;;;10.00;10.00;;;;;;;;5081276;28;46947;-82
2021/08/15 13:52:21;;;;;;;;;8.25;8.25;;;;;;;;5081398;28;47097;-83
2021/08/15 13:54:47;;;;;;;;;11.00;8.00;;;;;;;;5081742;28;46844;-81
2021/08/15 13:57:12;;;;;;;;;9.00;8.75;;;;;;;;5081072;28;46884;-82
2021/08/15 13:59:38;;;;;;;;;6.25;6.25;;;;;;;;5062714;28;46837;-81
2021/08/15 14:02:04;;;;;;;;;8.50;8.50;;;;;;;;5081467;28;46899;-81
2021/08/15 14:04:31;;;;;;;;;8.50;7.75;;;;;;;;5080922;28;47282;-81
2021/08/15 14:06:57;;;;;;;;;9.00;9.00;;;;;;;;5062665;28;48440;-81
2021/08/15 14:09:23;;;;;;;;;11.00;10.00;;;;;;;;5080874;28;47085;-81
2021/08/15 14:11:48;;;;;;;;;8.25;8.25;;;;;;;;5081137;28;46998;-83
2021/08/15 14:14:13;;;;;;;;;9.25;9.25;;;;;;;;5080925;28;47009;-83
2021/08/15 14:16:39;;;;;;;;;8.50;7.00;;;;;;;;5080848;28;47977;-82
2021/08/15 14:19:04;;;;;;;;;10.00;9.00;;;;;;;;5080460;28;46886;-82
2021/08/15 14:21:29;;;;;;;;;10.25;6.25;;;;;;;;5080778;28;47109;-82
2021/08/15 14:23:56;;;;;;;;;11.00;10.00;;;;;;;;5081152;28;47071;-82